Time;durP1;ratioP1;P1;durP2;ratioP2;P2;SDS_P1;SDS_P2;PMS_P1;PMS_P2;Temp;Humidity;BMP_temperature;BMP_pressure;BME280_temperature;BME280_humidity;BME280_pressure;Samples;Min_cycle;Max_cycle;Signal;HPM_P1;HPM_P2
2022/02/22 00:02:41;;;;;;;0.30;0.10;;;;;;;;;;6306527;28;20491;-63
2022/02/22 00:05:43;;;;;;;0.25;0.17;;;;;;;;;;6299331;28;20129;-64
2022/02/22 00:08:44;;;;;;;0.22;0.10;;;;;;;;;;6299911;28;20068;-61
2022/02/22 00:11:46;;;;;;;0.05;0.00;;;;;;;;;;6304648;28;20120;-65
2022/02/22 00:14:49;;;;;;;0.57;0.20;;;;;;;;;;6304611;28;20079;-63
2022/02/22 00:17:50;;;;;;;0.10;0.10;;;;;;;;;;6307999;28;20210;-64
2022/02/22 00:20:52;;;;;;;0.30;0.10;;;;;;;;;;6306729;28;20171;-62
2022/02/22 00:23:54;;;;;;;0.10;0.10;;;;;;;;;;6315096;28;20072;-62
2022/02/22 00:26:55;;;;;;;0.08;0.00;;;;;;;;;;6311180;28;20071;-65
2022/02/22 00:29:58;;;;;;;0.90;0.10;;;;;;;;;;6306810;28;20119;-62
2022/02/22 00:33:00;;;;;;;0.20;0.10;;;;;;;;;;6309105;28;20086;-64
2022/02/22 00:36:01;;;;;;;0.40;0.30;;;;;;;;;;6309135;28;20131;-62
2022/02/22 00:39:05;;;;;;;0.13;0.13;;;;;;;;;;6308823;28;20125;-63
2022/02/22 00:42:06;;;;;;;0.40;0.20;;;;;;;;;;6307255;28;20178;-62
2022/02/22 00:45:11;;;;;;;0.60;0.20;;;;;;;;;;6310365;28;20044;-62
2022/02/22 00:48:12;;;;;;;0.15;0.10;;;;;;;;;;6309134;28;20523;-62
2022/02/22 00:51:14;;;;;;;1.90;0.10;;;;;;;;;;6306487;28;20048;-62
2022/02/22 00:54:17;;;;;;;1.40;0.10;;;;;;;;;;6307325;28;20072;-63
2022/02/22 00:57:18;;;;;;;0.20;0.00;;;;;;;;;;6304467;28;20509;-62
2022/02/22 01:00:21;;;;;;;0.98;0.20;;;;;;;;;;6303557;28;20697;-62
2022/02/22 01:03:23;;;;;;;0.40;0.15;;;;;;;;;;6302518;28;20070;-63
2022/02/22 01:06:24;;;;;;;0.10;0.10;;;;;;;;;;6307911;28;20602;-62
2022/02/22 01:09:26;;;;;;;1.02;0.20;;;;;;;;;;6307669;28;20145;-64
2022/02/22 01:12:27;;;;;;;0.10;0.10;;;;;;;;;;6305987;28;20178;-62
2022/02/22 01:15:30;;;;;;;0.50;0.17;;;;;;;;;;6302794;28;20135;-63
2022/02/22 01:18:32;;;;;;;0.43;0.10;;;;;;;;;;6309524;28;20147;-62
2022/02/22 01:21:34;;;;;;;0.10;0.10;;;;;;;;;;6314459;28;20109;-63
2022/02/22 01:24:36;;;;;;;0.20;0.10;;;;;;;;;;6312197;28;20048;-62
2022/02/22 01:27:38;;;;;;;0.08;0.03;;;;;;;;;;6307931;28;20051;-62
2022/02/22 01:30:41;;;;;;;0.20;0.10;;;;;;;;;;6308668;28;20075;-63
2022/02/22 01:33:42;;;;;;;0.10;0.10;;;;;;;;;;6306231;28;20127;-62
2022/02/22 01:36:45;;;;;;;0.20;0.10;;;;;;;;;;6308003;28;20052;-65
2022/02/22 01:39:47;;;;;;;0.40;0.10;;;;;;;;;;6304438;28;20422;-63
2022/02/22 01:42:48;;;;;;;0.95;0.10;;;;;;;;;;6301521;28;20076;-63
2022/02/22 01:45:51;;;;;;;0.50;0.20;;;;;;;;;;6312601;28;20067;-63
2022/02/22 01:48:53;;;;;;;1.55;0.10;;;;;;;;;;6308908;28;20131;-63
2022/02/22 01:51:55;;;;;;;0.30;0.10;;;;;;;;;;6310973;28;20055;-63
2022/02/22 01:54:56;;;;;;;0.10;0.10;;;;;;;;;;6316097;28;20164;-63
2022/02/22 01:57:58;;;;;;;1.42;0.10;;;;;;;;;;6312242;28;20254;-64
2022/02/22 02:01:01;;;;;;;0.13;0.10;;;;;;;;;;6312062;28;20499;-64
2022/02/22 02:04:06;;;;;;;0.15;0.10;;;;;;;;;;6312170;28;20435;-63
2022/02/22 02:07:08;;;;;;;0.10;0.10;;;;;;;;;;6309804;28;20048;-63
2022/02/22 02:10:10;;;;;;;0.00;0.00;;;;;;;;;;6308234;28;20040;-63
2022/02/22 02:13:12;;;;;;;0.10;0.10;;;;;;;;;;6305681;28;20134;-63
2022/02/22 02:16:15;;;;;;;0.32;0.20;;;;;;;;;;6306284;28;20085;-63
2022/02/22 02:19:18;;;;;;;0.60;0.28;;;;;;;;;;6301611;28;20602;-64
2022/02/22 02:22:21;;;;;;;0.75;0.10;;;;;;;;;;6306355;28;20190;-63
2022/02/22 02:25:23;;;;;;;0.40;0.10;;;;;;;;;;6310393;28;20105;-64
2022/02/22 02:28:25;;;;;;;1.27;0.05;;;;;;;;;;6313766;28;20139;-64
2022/02/22 02:31:27;;;;;;;0.70;0.20;;;;;;;;;;6310408;28;20037;-64
2022/02/22 02:34:29;;;;;;;0.20;0.10;;;;;;;;;;6311720;28;20198;-63
2022/02/22 02:37:34;;;;;;;0.25;0.10;;;;;;;;;;6311185;28;20494;-64
2022/02/22 02:40:36;;;;;;;0.08;0.05;;;;;;;;;;6310213;28;20063;-62
2022/02/22 02:43:37;;;;;;;0.00;0.00;;;;;;;;;;6304479;28;20078;-64
2022/02/22 02:46:39;;;;;;;1.30;0.10;;;;;;;;;;6307921;28;20532;-64
2022/02/22 02:49:42;;;;;;;0.35;0.10;;;;;;;;;;6310439;28;20478;-64
2022/02/22 02:52:45;;;;;;;0.35;0.15;;;;;;;;;;6306599;28;20589;-64
2022/02/22 02:55:47;;;;;;;0.35;0.10;;;;;;;;;;6307178;28;20096;-63
2022/02/22 02:58:48;;;;;;;0.43;0.10;;;;;;;;;;6306555;28;20182;-63
2022/02/22 03:01:50;;;;;;;0.00;0.00;;;;;;;;;;6306163;28;20093;-61
2022/02/22 03:04:51;;;;;;;0.47;0.20;;;;;;;;;;6313903;28;20048;-63
2022/02/22 03:07:58;;;;;;;3.13;0.10;;;;;;;;;;6312925;28;20544;-63
2022/02/22 03:11:00;;;;;;;0.10;0.10;;;;;;;;;;6308367;28;20050;-65
2022/02/22 03:14:02;;;;;;;0.00;0.00;;;;;;;;;;6308376;28;20129;-63
2022/02/22 03:17:04;;;;;;;0.30;0.10;;;;;;;;;;6304258;28;20366;-64
2022/02/22 03:20:07;;;;;;;1.85;0.30;;;;;;;;;;6307589;28;20119;-62
2022/02/22 03:23:10;;;;;;;0.38;0.20;;;;;;;;;;6309311;28;20056;-64
2022/02/22 03:26:11;;;;;;;0.28;0.13;;;;;;;;;;6306900;28;20133;-64
2022/02/22 03:29:13;;;;;;;1.08;0.15;;;;;;;;;;6304231;28;20126;-63
2022/02/22 03:32:14;;;;;;;0.28;0.17;;;;;;;;;;6300995;28;20084;-63
2022/02/22 03:35:16;;;;;;;0.82;0.20;;;;;;;;;;6300247;28;20124;-63
2022/02/22 03:38:19;;;;;;;0.82;0.40;;;;;;;;;;6309756;28;20638;-62
2022/02/22 03:41:21;;;;;;;0.30;0.15;;;;;;;;;;6306063;28;20099;-62
2022/02/22 03:44:22;;;;;;;0.75;0.28;;;;;;;;;;6311366;28;20073;-63
2022/02/22 03:47:24;;;;;;;0.82;0.30;;;;;;;;;;6307336;28;20040;-63
2022/02/22 03:50:26;;;;;;;0.60;0.30;;;;;;;;;;6315669;28;20048;-63
2022/02/22 03:53:29;;;;;;;0.38;0.10;;;;;;;;;;6313405;28;20079;-62
2022/02/22 03:56:30;;;;;;;0.32;0.17;;;;;;;;;;6313386;28;20180;-62
2022/02/22 03:59:32;;;;;;;1.17;0.20;;;;;;;;;;6312897;28;20197;-63
2022/02/22 04:02:34;;;;;;;0.25;0.20;;;;;;;;;;6313680;28;20083;-63
2022/02/22 04:05:36;;;;;;;0.73;0.20;;;;;;;;;;6312746;28;20067;-64
2022/02/22 04:08:39;;;;;;;0.40;0.13;;;;;;;;;;6309896;28;20085;-62
2022/02/22 04:11:41;;;;;;;1.27;0.20;;;;;;;;;;6316373;28;20075;-63
2022/02/22 04:14:42;;;;;;;1.38;0.20;;;;;;;;;;6316667;28;20606;-63
2022/02/22 04:17:44;;;;;;;0.15;0.10;;;;;;;;;;6312455;28;20079;-63
2022/02/22 04:20:46;;;;;;;0.95;0.50;;;;;;;;;;6316735;28;20070;-63
2022/02/22 04:23:49;;;;;;;3.30;0.57;;;;;;;;;;6316620;28;20055;-63
2022/02/22 04:26:51;;;;;;;0.85;0.35;;;;;;;;;;6315003;28;20133;-62
2022/02/22 04:29:52;;;;;;;0.32;0.20;;;;;;;;;;6311436;28;20120;-62
2022/02/22 04:32:54;;;;;;;1.35;0.30;;;;;;;;;;6309369;28;20177;-62
2022/02/22 04:35:56;;;;;;;0.20;0.10;;;;;;;;;;6310149;28;20179;-63
2022/02/22 04:38:59;;;;;;;1.15;0.20;;;;;;;;;;6308065;28;20139;-62
2022/02/22 04:42:00;;;;;;;0.80;0.40;;;;;;;;;;6309671;28;20122;-62
2022/02/22 04:45:02;;;;;;;1.40;0.60;;;;;;;;;;6307080;28;20151;-62
2022/02/22 04:48:04;;;;;;;0.75;0.20;;;;;;;;;;6309129;28;20449;-63
2022/02/22 04:51:05;;;;;;;1.80;0.20;;;;;;;;;;6313370;28;20123;-63
2022/02/22 04:54:09;;;;;;;1.15;0.30;;;;;;;;;;6308858;28;20075;-63
2022/02/22 04:57:10;;;;;;;0.95;0.22;;;;;;;;;;6306884;28;20132;-62
2022/02/22 05:00:13;;;;;;;1.95;0.25;;;;;;;;;;6304998;28;20130;-63
2022/02/22 05:03:15;;;;;;;1.83;0.30;;;;;;;;;;6305764;28;20163;-63
2022/02/22 05:06:17;;;;;;;1.63;0.22;;;;;;;;;;6313057;28;20133;-63
2022/02/22 05:09:21;;;;;;;2.08;0.20;;;;;;;;;;6310173;28;20077;-63
2022/02/22 05:12:22;;;;;;;0.22;0.20;;;;;;;;;;6308555;28;20048;-63
2022/02/22 05:15:24;;;;;;;0.55;0.30;;;;;;;;;;6306800;28;20131;-63
2022/02/22 05:18:26;;;;;;;0.52;0.20;;;;;;;;;;6308021;28;20182;-63
2022/02/22 05:21:27;;;;;;;0.98;0.30;;;;;;;;;;6313144;28;20078;-63
2022/02/22 05:24:30;;;;;;;0.70;0.30;;;;;;;;;;6314071;28;20109;-63
2022/02/22 05:27:32;;;;;;;0.70;0.40;;;;;;;;;;6309367;28;20446;-63
2022/02/22 05:30:33;;;;;;;0.65;0.20;;;;;;;;;;6309030;28;20178;-63
2022/02/22 05:33:35;;;;;;;2.10;0.35;;;;;;;;;;6306465;28;20072;-63
2022/02/22 05:36:36;;;;;;;1.67;0.28;;;;;;;;;;6308779;28;20051;-63
2022/02/22 05:39:39;;;;;;;0.35;0.20;;;;;;;;;;6309388;28;20071;-63
2022/02/22 05:42:41;;;;;;;0.75;0.50;;;;;;;;;;6311908;28;20068;-63
2022/02/22 05:45:42;;;;;;;3.15;0.57;;;;;;;;;;6315142;28;20126;-62
2022/02/22 05:48:44;;;;;;;1.55;0.20;;;;;;;;;;6309631;28;20083;-64
2022/02/22 05:51:46;;;;;;;1.05;0.45;;;;;;;;;;6308726;28;20036;-63
2022/02/22 05:54:49;;;;;;;0.98;0.40;;;;;;;;;;6309361;28;20094;-63
2022/02/22 05:57:51;;;;;;;1.13;0.30;;;;;;;;;;6314023;28;20075;-63
2022/02/22 06:00:52;;;;;;;0.60;0.30;;;;;;;;;;6310919;28;20139;-63
2022/02/22 06:03:54;;;;;;;2.72;0.35;;;;;;;;;;6313875;28;20508;-63
2022/02/22 06:06:55;;;;;;;1.75;0.40;;;;;;;;;;6309394;28;20123;-63
2022/02/22 06:09:58;;;;;;;1.63;0.50;;;;;;;;;;6311655;28;20127;-63
2022/02/22 06:13:00;;;;;;;4.65;0.38;;;;;;;;;;6309411;28;20134;-63
2022/02/22 06:16:01;;;;;;;0.80;0.40;;;;;;;;;;6309413;28;20644;-63
2022/02/22 06:19:03;;;;;;;1.40;0.50;;;;;;;;;;6308985;28;20174;-63
2022/02/22 06:22:05;;;;;;;1.95;0.60;;;;;;;;;;6306639;28;20218;-65
2022/02/22 06:25:10;;;;;;;1.45;0.75;;;;;;;;;;6310396;28;20052;-63
2022/02/22 06:28:12;;;;;;;2.17;0.40;;;;;;;;;;6304975;28;20167;-63
2022/02/22 06:31:14;;;;;;;1.80;0.73;;;;;;;;;;6304637;28;20040;-64
2022/02/22 06:34:16;;;;;;;1.23;0.43;;;;;;;;;;6311543;28;20105;-64
2022/02/22 06:37:17;;;;;;;2.10;0.70;;;;;;;;;;6307897;28;20052;-63
2022/02/22 06:40:20;;;;;;;1.33;0.50;;;;;;;;;;6307211;28;20093;-63
2022/02/22 06:43:22;;;;;;;2.15;0.80;;;;;;;;;;6303957;28;20124;-63
2022/02/22 06:46:24;;;;;;;1.02;0.40;;;;;;;;;;6305411;28;20448;-63
2022/02/22 06:49:25;;;;;;;1.17;0.52;;;;;;;;;;6304737;28;20044;-62
2022/02/22 06:52:27;;;;;;;5.97;1.10;;;;;;;;;;6302929;28;20135;-63
2022/02/22 06:55:30;;;;;;;1.63;0.63;;;;;;;;;;6302111;28;20564;-63
2022/02/22 06:58:33;;;;;;;2.85;1.00;;;;;;;;;;6302567;28;20130;-64
2022/02/22 07:01:34;;;;;;;3.10;1.08;;;;;;;;;;6300870;28;20036;-63
2022/02/22 07:04:36;;;;;;;1.45;0.93;;;;;;;;;;6308578;28;20237;-62
2022/02/22 07:07:38;;;;;;;1.67;1.08;;;;;;;;;;6311358;28;20206;-62
2022/02/22 07:10:40;;;;;;;5.00;0.90;;;;;;;;;;6306634;28;20332;-64
2022/02/22 07:13:43;;;;;;;2.20;1.00;;;;;;;;;;6311917;28;20125;-63
2022/02/22 07:16:45;;;;;;;4.40;1.35;;;;;;;;;;6306175;28;20052;-66
2022/02/22 07:19:46;;;;;;;3.67;1.52;;;;;;;;;;6307946;28;20130;-63
2022/02/22 07:22:48;;;;;;;2.63;1.10;;;;;;;;;;6305462;28;20052;-66
2022/02/22 07:25:50;;;;;;;3.83;1.20;;;;;;;;;;6307516;28;20146;-65
2022/02/22 07:28:53;;;;;;;3.00;1.10;;;;;;;;;;6301805;28;20052;-65
2022/02/22 07:31:54;;;;;;;6.50;1.60;;;;;;;;;;6300540;28;20040;-65
2022/02/22 07:34:56;;;;;;;7.10;1.30;;;;;;;;;;6300297;28;20349;-65
2022/02/22 07:37:58;;;;;;;3.08;1.10;;;;;;;;;;6301333;28;20040;-63
2022/02/22 07:40:59;;;;;;;2.28;1.05;;;;;;;;;;6301132;28;20071;-64
2022/02/22 07:44:02;;;;;;;8.02;1.65;;;;;;;;;;6305584;28;20126;-65
2022/02/22 07:47:05;;;;;;;4.53;1.08;;;;;;;;;;6308333;28;20053;-65
2022/02/22 07:50:08;;;;;;;3.25;1.08;;;;;;;;;;6306524;28;20052;-63
2022/02/22 07:53:09;;;;;;;4.85;1.50;;;;;;;;;;6305105;28;20173;-64
2022/02/22 07:56:11;;;;;;;6.68;1.10;;;;;;;;;;6306535;28;20126;-65
2022/02/22 07:59:14;;;;;;;10.75;1.90;;;;;;;;;;6303584;28;20208;-66
2022/02/22 08:02:16;;;;;;;3.83;1.80;;;;;;;;;;6304549;28;20167;-64
2022/02/22 08:05:17;;;;;;;6.63;2.03;;;;;;;;;;6301656;28;20117;-63
2022/02/22 08:08:19;;;;;;;6.40;2.22;;;;;;;;;;6298961;28;20056;-62
2022/02/22 08:11:21;;;;;;;5.65;1.92;;;;;;;;;;6298653;28;20085;-64
2022/02/22 08:14:23;;;;;;;24.35;2.42;;;;;;;;;;6297874;28;20131;-65
2022/02/22 08:17:25;;;;;;;10.85;1.30;;;;;;;;;;6301888;28;20127;-65
2022/02/22 08:20:27;;;;;;;12.70;1.60;;;;;;;;;;6307355;28;20135;-64
2022/02/22 08:23:30;;;;;;;17.75;1.73;;;;;;;;;;6309060;28;20157;-65
2022/02/22 08:26:32;;;;;;;10.25;1.35;;;;;;;;;;6306315;28;20396;-66
2022/02/22 08:29:35;;;;;;;24.92;2.33;;;;;;;;;;6306606;28;20040;-65
2022/02/22 08:32:36;;;;;;;112.03;9.97;;;;;;;;;;6299499;28;20183;-65
2022/02/22 08:35:38;;;;;;;47.10;4.85;;;;;;;;;;6308043;28;20076;-66
2022/02/22 08:38:39;;;;;;;7.00;2.50;;;;;;;;;;6309244;28;20710;-66
2022/02/22 08:41:42;;;;;;;5.45;2.10;;;;;;;;;;6310440;28;20495;-66
2022/02/22 08:44:45;;;;;;;17.48;1.63;;;;;;;;;;6307357;28;20040;-66
2022/02/22 08:47:47;;;;;;;26.53;2.63;;;;;;;;;;6305813;28;20222;-65
2022/02/22 08:50:50;;;;;;;37.05;3.20;;;;;;;;;;6308695;28;20048;-67
2022/02/22 08:53:52;;;;;;;13.05;0.80;;;;;;;;;;6308265;28;20078;-66
2022/02/22 08:56:53;;;;;;;8.65;1.50;;;;;;;;;;6307352;28;20520;-64
2022/02/22 08:59:56;;;;;;;1.95;0.45;;;;;;;;;;6308104;28;20072;-63
2022/02/22 09:03:00;;;;;;;2.53;0.40;;;;;;;;;;6308808;28;20059;-67
2022/02/22 09:06:02;;;;;;;2.33;0.50;;;;;;;;;;6313125;28;20055;-69
2022/02/22 09:09:03;;;;;;;1.30;0.30;;;;;;;;;;6306590;28;20131;-66
2022/02/22 09:12:06;;;;;;;14.00;1.15;;;;;;;;;;6307737;28;20622;-67
2022/02/22 09:15:10;;;;;;;1.45;0.30;;;;;;;;;;6309910;28;20132;-66
2022/02/22 09:18:12;;;;;;;8.07;1.23;;;;;;;;;;6307665;28;20052;-67
2022/02/22 09:21:14;;;;;;;15.45;2.10;;;;;;;;;;6305819;28;20068;-70
2022/02/22 09:24:15;;;;;;;42.97;3.88;;;;;;;;;;6306987;28;20174;-69
2022/02/22 09:27:17;;;;;;;11.13;0.93;;;;;;;;;;6308640;28;20044;-69
2022/02/22 09:30:21;;;;;;;11.23;0.85;;;;;;;;;;6309612;28;20513;-65
2022/02/22 09:33:22;;;;;;;3.95;0.75;;;;;;;;;;6308783;28;20492;-66
2022/02/22 09:36:24;;;;;;;1.67;0.50;;;;;;;;;;6312034;28;20113;-64
2022/02/22 09:39:25;;;;;;;5.50;0.90;;;;;;;;;;6304548;28;20121;-64
2022/02/22 09:42:27;;;;;;;3.60;0.80;;;;;;;;;;6308212;28;20215;-65
2022/02/22 09:45:30;;;;;;;2.33;0.60;;;;;;;;;;6309307;28;20056;-65
2022/02/22 09:48:31;;;;;;;2.85;0.60;;;;;;;;;;6308714;28;20064;-65
2022/02/22 09:51:33;;;;;;;0.93;0.50;;;;;;;;;;6304049;28;20131;-65
2022/02/22 09:54:35;;;;;;;4.10;0.52;;;;;;;;;;6302434;28;20045;-65
2022/02/22 09:57:36;;;;;;;72.45;8.73;;;;;;;;;;6302681;28;20041;-65
2022/02/22 10:00:39;;;;;;;5.22;0.90;;;;;;;;;;6306901;28;20113;-66
2022/02/22 10:03:41;;;;;;;5.95;1.02;;;;;;;;;;6309833;28;20518;-66
2022/02/22 10:06:43;;;;;;;25.38;2.10;;;;;;;;;;6305253;28;20156;-65
2022/02/22 10:09:54;;;;;;;2.95;0.82;;;;;;;;;;6308430;28;20556;-66
2022/02/22 10:12:56;;;;;;;15.85;1.80;;;;;;;;;;6304729;28;20060;-66
2022/02/22 10:15:59;;;;;;;1.85;0.75;;;;;;;;;;6306570;28;20102;-65
2022/02/22 10:19:03;;;;;;;6.45;1.25;;;;;;;;;;6308009;28;20118;-65
2022/02/22 10:22:07;;;;;;;3.85;0.80;;;;;;;;;;6303545;28;20629;-66
2022/02/22 10:25:10;;;;;;;1.95;1.05;;;;;;;;;;6310277;28;20125;-66
2022/02/22 10:28:16;;;;;;;1.90;0.70;;;;;;;;;;6307602;28;20455;-67
2022/02/22 10:31:29;;;;;;;3.53;0.98;;;;;;;;;;6305138;28;20142;-65
2022/02/22 10:34:31;;;;;;;3.40;0.70;;;;;;;;;;6308800;28;20406;-65
2022/02/22 10:37:33;;;;;;;0.80;0.80;;;;;;;;;;6303265;28;20511;-66
2022/02/22 10:40:35;;;;;;;1.50;0.57;;;;;;;;;;6308738;28;20686;-66
2022/02/22 10:43:38;;;;;;;2.50;0.80;;;;;;;;;;6309388;28;20047;-66
2022/02/22 10:46:45;;;;;;;3.83;0.40;;;;;;;;;;6305139;28;20515;-65
2022/02/22 10:49:48;;;;;;;26.60;2.63;;;;;;;;;;6306277;28;20047;-65
2022/02/22 10:52:50;;;;;;;;;;;;;;;;;;6306701;28;20154;-66
2022/02/22 10:55:51;;;;;;;2.13;0.38;;;;;;;;;;6301600;28;20103;-67
2022/02/22 10:58:54;;;;;;;3.15;0.40;;;;;;;;;;6306594;28;20130;-66
2022/02/22 11:01:58;;;;;;;1.50;0.40;;;;;;;;;;6307543;28;20044;-68
2022/02/22 11:04:59;;;;;;;1.88;0.40;;;;;;;;;;6307882;28;20048;-68
2022/02/22 11:08:01;;;;;;;1.52;0.40;;;;;;;;;;6310204;28;20055;-69
2022/02/22 11:11:06;;;;;;;1.00;0.43;;;;;;;;;;6305978;28;20543;-68
2022/02/22 11:14:11;;;;;;;1.35;0.38;;;;;;;;;;6310115;28;20048;-68
2022/02/22 11:17:18;;;;;;;1.90;0.30;;;;;;;;;;6309139;28;20044;-68
2022/02/22 11:20:27;;;;;;;0.52;0.35;;;;;;;;;;6303429;28;20048;-68
2022/02/22 11:23:29;;;;;;;1.23;0.30;;;;;;;;;;6302993;28;20049;-68
2022/02/22 11:26:47;;;;;;;1.20;0.50;;;;;;;;;;6303163;28;20134;-68
2022/02/22 11:29:55;;;;;;;0.88;0.30;;;;;;;;;;6302881;28;20520;-69
2022/02/22 11:33:00;;;;;;;0.60;0.50;;;;;;;;;;6300336;28;20664;-68
2022/02/22 11:36:05;;;;;;;1.20;0.35;;;;;;;;;;6300495;28;20059;-68
2022/02/22 11:39:08;;;;;;;0.47;0.20;;;;;;;;;;6303594;28;20048;-68
2022/02/22 11:42:17;;;;;;;3.83;0.47;;;;;;;;;;6303777;28;20189;-68
2022/02/22 11:45:26;;;;;;;1.48;0.50;;;;;;;;;;6307525;28;20090;-68
2022/02/22 11:48:35;;;;;;;2.38;0.38;;;;;;;;;;6312566;28;20051;-67
2022/02/22 11:51:44;;;;;;;1.40;0.40;;;;;;;;;;6311823;28;20056;-68
2022/02/22 11:54:47;;;;;;;0.60;0.40;;;;;;;;;;6307992;28;20397;-68
2022/02/22 11:57:50;;;;;;;1.23;0.70;;;;;;;;;;6308051;28;20055;-68
2022/02/22 12:00:54;;;;;;;0.93;0.50;;;;;;;;;;6305791;28;20099;-68
2022/02/22 12:03:57;;;;;;;8.02;1.00;;;;;;;;;;6306768;28;20040;-68
2022/02/22 12:06:59;;;;;;;3.63;0.40;;;;;;;;;;6305899;28;20170;-68
2022/02/22 12:10:06;;;;;;;2.42;0.32;;;;;;;;;;6308971;28;20057;-68
2022/02/22 12:13:09;;;;;;;13.75;1.63;;;;;;;;;;6310656;28;20052;-68
2022/02/22 12:16:14;;;;;;;5.32;0.93;;;;;;;;;;6308768;28;20408;-67
2022/02/22 12:19:21;;;;;;;2.17;0.45;;;;;;;;;;6303933;28;20496;-68
2022/02/22 12:22:24;;;;;;;1.40;0.85;;;;;;;;;;6314203;28;20073;-68
2022/02/22 12:25:26;;;;;;;;;;;;;;;;;;6317666;28;20530;-69
2022/02/22 12:28:27;;;;;;;1.77;0.40;;;;;;;;;;6316147;28;20001;-68
2022/02/22 12:31:31;;;;;;;5.40;0.70;;;;;;;;;;6310767;28;20059;-68
2022/02/22 12:34:34;;;;;;;7.40;1.27;;;;;;;;;;6306362;28;20052;-67
2022/02/22 12:37:42;;;;;;;0.95;0.47;;;;;;;;;;6305944;28;20528;-68
2022/02/22 12:40:45;;;;;;;25.25;2.97;;;;;;;;;;6302895;28;20103;-69
2022/02/22 12:43:48;;;;;;;4.10;0.70;;;;;;;;;;6305619;28;20324;-68
2022/02/22 12:46:50;;;;;;;;;;;;;;;;;;6303832;28;20068;-68
2022/02/22 12:49:53;;;;;;;8.32;0.75;;;;;;;;;;6308654;28;20009;-70
2022/02/22 12:52:55;;;;;;;4.13;0.50;;;;;;;;;;6305102;28;20078;-68
2022/02/22 12:55:56;;;;;;;1.65;0.50;;;;;;;;;;6300158;28;20121;-67
2022/02/22 12:58:59;;;;;;;5.53;0.82;;;;;;;;;;6307271;28;20059;-67
2022/02/22 13:02:02;;;;;;;2.83;0.60;;;;;;;;;;6307511;28;20082;-66
2022/02/22 13:05:06;;;;;;;3.22;0.60;;;;;;;;;;6312728;28;20048;-67
2022/02/22 13:08:09;;;;;;;12.55;1.45;;;;;;;;;;6315335;28;20045;-67
2022/02/22 13:11:10;;;;;;;5.10;0.60;;;;;;;;;;6309921;28;20123;-64
2022/02/22 13:14:13;;;;;;;16.35;1.20;;;;;;;;;;6309104;28;20059;-66
2022/02/22 13:17:15;;;;;;;1.10;0.32;;;;;;;;;;6307545;28;20079;-67
2022/02/22 13:20:18;;;;;;;1.63;0.47;;;;;;;;;;6305595;28;20098;-66
2022/02/22 13:23:30;;;;;;;0.80;0.47;;;;;;;;;;6305502;28;20145;-66
2022/02/22 13:26:36;;;;;;;3.53;0.50;;;;;;;;;;6309144;28;20043;-66
2022/02/22 13:29:38;;;;;;;26.02;1.95;;;;;;;;;;6302829;28;20048;-64
2022/02/22 13:32:41;;;;;;;6.90;0.65;;;;;;;;;;6310235;28;20071;-64
2022/02/22 13:35:55;;;;;;;5.60;0.40;;;;;;;;;;6308859;28;20036;-64
2022/02/22 13:38:58;;;;;;;23.40;2.65;;;;;;;;;;6310388;28;20120;-67
2022/02/22 13:42:00;;;;;;;;;;;;;;;;;;6311798;28;20248;-64
2022/02/22 13:45:03;;;;;;;8.85;0.80;;;;;;;;;;6310761;28;20058;-64
2022/02/22 13:48:06;;;;;;;1.73;0.30;;;;;;;;;;6306846;28;20628;-66
2022/02/22 13:51:11;;;;;;;1.50;0.82;;;;;;;;;;6309278;28;20141;-64
2022/02/22 13:54:16;;;;;;;15.55;3.28;;;;;;;;;;6307778;28;20083;-64
2022/02/22 13:57:18;;;;;;;12.05;1.73;;;;;;;;;;6307181;28;20135;-65
2022/02/22 14:00:20;;;;;;;1.30;0.40;;;;;;;;;;6304798;28;20133;-65
2022/02/22 14:03:21;;;;;;;3.22;0.40;;;;;;;;;;6306731;28;20116;-64
2022/02/22 14:06:29;;;;;;;1.17;0.40;;;;;;;;;;6306647;28;20055;-65
2022/02/22 14:09:30;;;;;;;3.30;0.77;;;;;;;;;;6306834;28;20043;-64
2022/02/22 14:12:33;;;;;;;1.85;0.43;;;;;;;;;;6307591;28;20090;-69
2022/02/22 14:15:34;;;;;;;10.07;1.03;;;;;;;;;;6303687;28;20052;-63
2022/02/22 14:18:36;;;;;;;2.92;0.50;;;;;;;;;;6304109;28;20188;-65
2022/02/22 14:21:39;;;;;;;1.27;0.60;;;;;;;;;;6302927;28;20074;-64
2022/02/22 14:24:41;;;;;;;8.35;1.23;;;;;;;;;;6308693;28;20553;-65
2022/02/22 14:27:43;;;;;;;4.07;0.60;;;;;;;;;;6305976;28;20551;-65
2022/02/22 14:30:44;;;;;;;8.50;1.42;;;;;;;;;;6303519;28;20075;-64
2022/02/22 14:33:46;;;;;;;4.63;0.60;;;;;;;;;;6303082;28;20691;-64
2022/02/22 14:36:49;;;;;;;1.05;0.55;;;;;;;;;;6308677;28;20044;-64
2022/02/22 14:39:50;;;;;;;;;;;;;;;;;;6306291;28;20181;-63
2022/02/22 14:42:52;;;;;;;1.35;0.73;;;;;;;;;;6307694;28;19920;-64
2022/02/22 14:45:56;;;;;;;30.90;2.80;;;;;;;;;;6304272;28;20136;-63
2022/02/22 14:48:57;;;;;;;6.47;0.82;;;;;;;;;;6302927;28;20040;-64
2022/02/22 14:52:00;;;;;;;6.68;1.08;;;;;;;;;;6305334;28;20087;-64
2022/02/22 14:55:02;;;;;;;;;;;;;;;;;;6300668;28;20452;-64
2022/02/22 14:58:04;;;;;;;23.17;2.38;;;;;;;;;;6299561;28;19920;-63
2022/02/22 15:01:07;;;;;;;3.42;0.77;;;;;;;;;;6298991;28;20597;-65
2022/02/22 15:04:08;;;;;;;6.07;1.10;;;;;;;;;;6303444;28;20504;-68
2022/02/22 15:07:12;;;;;;;20.60;2.03;;;;;;;;;;6304575;28;20044;-66
2022/02/22 15:10:13;;;;;;;2.30;0.90;;;;;;;;;;6305087;28;20068;-66
2022/02/22 15:13:15;;;;;;;12.38;1.77;;;;;;;;;;6301417;28;20123;-66
2022/02/22 15:16:17;;;;;;;15.80;1.80;;;;;;;;;;6305837;28;20918;-66
2022/02/22 15:19:19;;;;;;;2.63;0.70;;;;;;;;;;6308912;28;20090;-66
2022/02/22 15:22:22;;;;;;;4.80;0.85;;;;;;;;;;6308407;28;20059;-66
2022/02/22 15:25:24;;;;;;;10.95;1.48;;;;;;;;;;6307087;28;20047;-65
2022/02/22 15:28:25;;;;;;;17.50;2.70;;;;;;;;;;6302136;28;20493;-64
2022/02/22 15:31:27;;;;;;;25.83;3.40;;;;;;;;;;6303008;28;20078;-64
2022/02/22 15:34:29;;;;;;;10.50;1.40;;;;;;;;;;6304357;28;20141;-64
2022/02/22 15:37:32;;;;;;;48.03;6.43;;;;;;;;;;6300802;28;20048;-65
2022/02/22 15:40:34;;;;;;;58.63;5.53;;;;;;;;;;6301183;28;20109;-65
2022/02/22 15:43:36;;;;;;;14.68;6.28;;;;;;;;;;6302269;28;20049;-65
2022/02/22 15:46:37;;;;;;;30.30;9.82;;;;;;;;;;6309257;28;20102;-67
2022/02/22 15:49:39;;;;;;;8.75;2.80;;;;;;;;;;6307241;28;20139;-64
2022/02/22 15:52:42;;;;;;;101.28;37.47;;;;;;;;;;6311823;28;20063;-64
2022/02/22 15:55:44;;;;;;;12.40;3.75;;;;;;;;;;6308478;28;20613;-66
2022/02/22 15:58:46;;;;;;;5.93;1.80;;;;;;;;;;6304329;28;20507;-64
2022/02/22 16:01:47;;;;;;;11.43;1.70;;;;;;;;;;6304650;28;20197;-64
2022/02/22 16:04:49;;;;;;;6.68;2.42;;;;;;;;;;6301140;28;20081;-66
2022/02/22 16:07:53;;;;;;;4.68;2.00;;;;;;;;;;6301740;28;20089;-64
2022/02/22 16:10:55;;;;;;;2.50;1.50;;;;;;;;;;6301569;28;20056;-66
2022/02/22 16:13:56;;;;;;;9.93;4.68;;;;;;;;;;6302849;28;20075;-65
2022/02/22 16:16:59;;;;;;;3.17;1.13;;;;;;;;;;6300494;28;20048;-66
2022/02/22 16:20:02;;;;;;;2.72;1.02;;;;;;;;;;6301738;28;20711;-65
2022/02/22 16:23:05;;;;;;;11.90;4.30;;;;;;;;;;6301362;28;20048;-65
2022/02/22 16:26:06;;;;;;;3.55;1.08;;;;;;;;;;6310229;28;20555;-65
2022/02/22 16:29:08;;;;;;;4.45;1.15;;;;;;;;;;6309591;28;20036;-64
2022/02/22 16:32:12;;;;;;;14.38;1.48;;;;;;;;;;6304784;28;20190;-64
2022/02/22 16:35:14;;;;;;;5.57;1.10;;;;;;;;;;6305661;28;20127;-65
2022/02/22 16:38:17;;;;;;;7.95;1.00;;;;;;;;;;6307643;28;20044;-65
2022/02/22 16:41:19;;;;;;;1.45;0.80;;;;;;;;;;6303987;28;20040;-64
2022/02/22 16:44:20;;;;;;;1.77;0.90;;;;;;;;;;6303871;28;20396;-65
2022/02/22 16:47:22;;;;;;;3.30;0.90;;;;;;;;;;6302536;28;20119;-64
2022/02/22 16:50:24;;;;;;;1.75;0.88;;;;;;;;;;6303824;28;20079;-63
2022/02/22 16:53:27;;;;;;;1.42;0.73;;;;;;;;;;6302169;28;20177;-63
2022/02/22 16:56:28;;;;;;;2.38;1.10;;;;;;;;;;6303303;28;20193;-63
2022/02/22 16:59:30;;;;;;;1.67;0.80;;;;;;;;;;6301124;28;20400;-64
2022/02/22 17:02:31;;;;;;;1.63;0.90;;;;;;;;;;6309357;28;20473;-64
2022/02/22 17:05:33;;;;;;;4.72;0.90;;;;;;;;;;6314701;28;20040;-64
2022/02/22 17:08:36;;;;;;;1.60;0.82;;;;;;;;;;6312394;28;20089;-62
2022/02/22 17:11:37;;;;;;;4.32;0.80;;;;;;;;;;6312859;28;20141;-64
2022/02/22 17:14:39;;;;;;;1.80;0.90;;;;;;;;;;6311786;28;20131;-64
2022/02/22 17:17:41;;;;;;;3.42;1.50;;;;;;;;;;6309433;28;20080;-65
2022/02/22 17:20:43;;;;;;;3.60;1.88;;;;;;;;;;6309386;28;20060;-65
2022/02/22 17:23:46;;;;;;;4.22;2.00;;;;;;;;;;6307000;28;20057;-65
2022/02/22 17:26:48;;;;;;;3.17;1.33;;;;;;;;;;6306434;28;20091;-66
2022/02/22 17:29:50;;;;;;;3.63;1.27;;;;;;;;;;6304559;28;20040;-64
2022/02/22 17:32:51;;;;;;;2.13;1.20;;;;;;;;;;6302210;28;20044;-63
2022/02/22 17:35:53;;;;;;;4.25;1.40;;;;;;;;;;6310094;28;20048;-63
2022/02/22 17:38:57;;;;;;;3.03;1.40;;;;;;;;;;6312656;28;20408;-63
2022/02/22 17:41:59;;;;;;;5.22;1.33;;;;;;;;;;6307370;28;20393;-63
2022/02/22 17:45:00;;;;;;;3.35;1.50;;;;;;;;;;6315350;28;20470;-63
2022/02/22 17:48:02;;;;;;;3.72;1.30;;;;;;;;;;6315060;28;20182;-64
2022/02/22 17:51:08;;;;;;;2.05;1.15;;;;;;;;;;6308635;28;20108;-64
2022/02/22 17:54:11;;;;;;;1.70;1.02;;;;;;;;;;6304997;28;20048;-65
2022/02/22 17:57:12;;;;;;;3.53;1.10;;;;;;;;;;6306822;28;20040;-64
2022/02/22 18:00:15;;;;;;;1.98;1.10;;;;;;;;;;6307644;28;20608;-63
2022/02/22 18:03:17;;;;;;;3.00;1.13;;;;;;;;;;6303356;28;20052;-63
2022/02/22 18:06:19;;;;;;;4.55;1.15;;;;;;;;;;6305169;28;20450;-63
2022/02/22 18:09:23;;;;;;;1.88;0.85;;;;;;;;;;6307081;28;20137;-64
2022/02/22 18:12:27;;;;;;;2.28;1.48;;;;;;;;;;6303588;28;20048;-64
2022/02/22 18:15:32;;;;;;;3.22;1.20;;;;;;;;;;6306539;28;20621;-63